createdAt,value
2023-04-06T00:00:01.755Z,-30
2023-04-06T00:01:07.032Z,-30
2023-04-06T00:02:13.335Z,-32
2023-04-06T00:03:19.578Z,-30
2023-04-06T00:04:24.885Z,-31
2023-04-06T00:05:31.154Z,-31
2023-04-06T00:06:36.462Z,-29
2023-04-06T00:07:41.744Z,-31
2023-04-06T00:08:48.023Z,-29
2023-04-06T00:09:54.287Z,-29
2023-04-06T00:11:00.558Z,-31
2023-04-06T00:12:06.829Z,-31
2023-04-06T00:13:13.095Z,-29
2023-04-06T00:14:19.373Z,-31
2023-04-06T00:15:25.654Z,-30
2023-04-06T00:16:31.919Z,-30
2023-04-06T00:17:38.188Z,-29
2023-04-06T00:18:44.533Z,-31
2023-04-06T00:19:50.735Z,-29
2023-04-06T00:20:57.018Z,-31
2023-04-06T00:22:02.312Z,-30
2023-04-06T00:23:08.576Z,-28
2023-04-06T00:24:14.843Z,-31
2023-04-06T00:25:21.129Z,-31
2023-04-06T00:26:27.397Z,-31
2023-04-06T00:27:33.661Z,-30
2023-04-06T00:28:39.932Z,-31
2023-04-06T00:29:45.234Z,-30
2023-04-06T00:30:50.525Z,-31
2023-04-06T00:31:56.811Z,-30
2023-04-06T00:33:03.074Z,-34
2023-04-06T00:34:08.370Z,-31
2023-04-06T00:35:13.711Z,-31
2023-04-06T00:36:19.933Z,-31
2023-04-06T00:37:26.199Z,-30
2023-04-06T00:38:32.473Z,-30
2023-04-06T00:39:38.740Z,-31
2023-04-06T00:40:45.012Z,-31
2023-04-06T00:41:51.303Z,-31
2023-04-06T00:42:57.668Z,-32
2023-04-06T00:44:03.931Z,-31
2023-04-06T00:45:10.105Z,-31
2023-04-06T00:46:16.380Z,-31
2023-04-06T00:47:22.678Z,-31
2023-04-06T00:48:28.925Z,-29
2023-04-06T00:49:34.212Z,-31
2023-04-06T00:50:40.490Z,-30
2023-04-06T00:51:46.753Z,-31
2023-04-06T00:52:53.036Z,-31
2023-04-06T00:53:59.314Z,-31
2023-04-06T00:55:05.601Z,-31
2023-04-06T00:56:11.846Z,-31
2023-04-06T00:57:18.124Z,-31
2023-04-06T00:58:23.444Z,-31
2023-04-06T00:59:28.715Z,-31
2023-04-06T01:00:34.017Z,-31
2023-04-06T01:01:40.303Z,-31
2023-04-06T01:02:45.566Z,-31
2023-04-06T01:03:51.880Z,-30
2023-04-06T01:04:58.115Z,-31
2023-04-06T01:06:04.387Z,-29
2023-04-06T01:07:10.664Z,-31
2023-04-06T01:08:16.941Z,-30
2023-04-06T01:09:23.202Z,-31
2023-04-06T01:10:29.484Z,-31
2023-04-06T01:11:35.759Z,-31
2023-04-06T01:12:42.024Z,-30
2023-04-06T01:13:48.296Z,-30
2023-04-06T01:14:54.569Z,-29
2023-04-06T01:16:00.850Z,-29
2023-04-06T01:17:06.158Z,-31
2023-04-06T01:18:12.403Z,-31
2023-04-06T01:19:18.671Z,-31
2023-04-06T01:20:24.946Z,-30
2023-04-06T01:21:31.250Z,-31
2023-04-06T01:22:37.503Z,-30
2023-04-06T01:23:42.793Z,-31
2023-04-06T01:24:48.083Z,-31
2023-04-06T01:25:53.402Z,-31
2023-04-06T01:26:58.671Z,-34
2023-04-06T01:28:04.937Z,-33
2023-04-06T01:29:11.234Z,-32
2023-04-06T01:30:17.498Z,-31
2023-04-06T01:31:23.768Z,-30
2023-04-06T01:32:30.030Z,-31
2023-04-06T01:33:36.311Z,-32
2023-04-06T01:34:42.580Z,-32
2023-04-06T01:35:48.851Z,-29
2023-04-06T01:36:55.123Z,-31
2023-04-06T01:38:01.420Z,-31
2023-04-06T01:39:07.677Z,-31
2023-04-06T01:40:13.944Z,-31
2023-04-06T01:41:20.210Z,-31
2023-04-06T01:42:25.495Z,-31
2023-04-06T01:43:31.767Z,-33
2023-04-06T01:44:38.070Z,-32
2023-04-06T01:45:44.327Z,-32
2023-04-06T01:46:50.590Z,-30
2023-04-06T01:47:56.878Z,-30
2023-04-06T01:49:02.196Z,-31
2023-04-06T01:50:07.452Z,-30
2023-04-06T01:51:12.756Z,-31
2023-04-06T01:52:18.034Z,-31
2023-04-06T01:53:24.391Z,-31
2023-04-06T01:54:30.617Z,-31
2023-04-06T01:55:36.855Z,-31
2023-04-06T01:56:43.124Z,-31
2023-04-06T01:57:49.407Z,-31
2023-04-06T01:58:55.676Z,-31
2023-04-06T02:00:01.947Z,-30
2023-04-06T02:01:08.225Z,-31
2023-04-06T02:02:14.496Z,-30
2023-04-06T02:03:20.766Z,-31
2023-04-06T02:04:27.043Z,-31
2023-04-06T02:05:33.339Z,-31
2023-04-06T02:06:38.611Z,-31
2023-04-06T02:07:44.874Z,-31
2023-04-06T02:08:51.137Z,-31
2023-04-06T02:09:57.412Z,-31
2023-04-06T02:11:03.693Z,-30
2023-04-06T02:12:09.968Z,-30
2023-04-06T02:13:16.236Z,-31
2023-04-06T02:14:22.512Z,-31
2023-04-06T02:15:27.808Z,-30
2023-04-06T02:16:33.094Z,-31
2023-04-06T02:17:39.369Z,-30
2023-04-06T02:18:45.640Z,-29
2023-04-06T02:19:50.961Z,-30
2023-04-06T02:20:56.245Z,-31
2023-04-06T02:22:02.502Z,-30
2023-04-06T02:23:08.800Z,-31
2023-04-06T02:24:15.051Z,-31
2023-04-06T02:25:21.324Z,-31
2023-04-06T02:26:27.610Z,-30
2023-04-06T02:27:33.870Z,-30
2023-04-06T02:28:40.138Z,-31
2023-04-06T02:29:46.402Z,-30
2023-04-06T02:30:52.683Z,-31
2023-04-06T02:31:58.960Z,-31
2023-04-06T02:33:05.243Z,-28
2023-04-06T02:34:11.497Z,-31
2023-04-06T02:35:16.786Z,-31
2023-04-06T02:36:23.081Z,-30
2023-04-06T02:37:29.336Z,-30
2023-04-06T02:38:35.608Z,-31
2023-04-06T02:39:41.884Z,-30
2023-04-06T02:40:48.151Z,-30
2023-04-06T02:41:54.426Z,-31
2023-04-06T02:42:59.724Z,-31
2023-04-06T02:44:05.008Z,-31
2023-04-06T02:45:10.310Z,-30
2023-04-06T02:46:15.584Z,-30
2023-04-06T02:47:21.883Z,-31
2023-04-06T02:48:28.151Z,-31
2023-04-06T02:49:34.419Z,-29
2023-04-06T02:50:40.693Z,-30
2023-04-06T02:51:46.958Z,-31
2023-04-06T02:52:53.253Z,-30
2023-04-06T02:53:59.509Z,-31
2023-04-06T02:55:05.769Z,-31
2023-04-06T02:56:12.057Z,-30
2023-04-06T02:57:18.324Z,-31
2023-04-06T02:58:24.596Z,-31
2023-04-06T02:59:30.873Z,-30
2023-04-06T03:00:37.134Z,-31
2023-04-06T03:01:42.513Z,-31
2023-04-06T03:02:48.704Z,-29
2023-04-06T03:03:54.976Z,-31
2023-04-06T03:05:01.251Z,-31
2023-04-06T03:06:07.525Z,-30
2023-04-06T03:07:13.804Z,-30
2023-04-06T03:08:19.101Z,-31
2023-04-06T03:09:24.421Z,-29
2023-04-06T03:10:30.650Z,-31
2023-04-06T03:11:35.985Z,-31
2023-04-06T03:12:41.238Z,-29
2023-04-06T03:13:47.516Z,-31
2023-04-06T03:14:53.794Z,-30
2023-04-06T03:16:00.061Z,-32
2023-04-06T03:17:06.325Z,-31
2023-04-06T03:18:12.604Z,-30
2023-04-06T03:19:18.875Z,-31
2023-04-06T03:20:25.153Z,-31
2023-04-06T03:21:31.426Z,-31
2023-04-06T03:22:37.707Z,-32
2023-04-06T03:23:43.996Z,-31
2023-04-06T03:24:50.228Z,-31
2023-04-06T03:25:56.511Z,-30
2023-04-06T03:27:01.804Z,-31
2023-04-06T03:28:08.069Z,-30
2023-04-06T03:29:14.344Z,-31
2023-04-06T03:30:20.640Z,-31
2023-04-06T03:31:26.889Z,-32
2023-04-06T03:32:33.166Z,-31
2023-04-06T03:33:39.444Z,-30
2023-04-06T03:34:44.730Z,-31
2023-04-06T03:35:50.017Z,-30
2023-04-06T03:36:55.333Z,-31
2023-04-06T03:38:00.610Z,-31
2023-04-06T03:39:06.890Z,-31
2023-04-06T03:40:13.223Z,-31
2023-04-06T03:41:19.429Z,-30
2023-04-06T03:42:24.727Z,-32
2023-04-06T03:43:30.992Z,-30
2023-04-06T03:44:37.282Z,-31
2023-04-06T03:45:43.543Z,-31
2023-04-06T03:46:49.820Z,-31
2023-04-06T03:47:56.082Z,-30
2023-04-06T03:49:02.352Z,-31
2023-04-06T03:50:08.649Z,-31
2023-04-06T03:51:14.889Z,-31
2023-04-06T03:52:21.172Z,-31
2023-04-06T03:53:27.445Z,-31
2023-04-06T03:54:33.719Z,-31
2023-04-06T03:55:40.007Z,-31
2023-04-06T03:56:45.277Z,-31
2023-04-06T03:57:51.556Z,-31
2023-04-06T03:58:57.845Z,-32
2023-04-06T04:00:03.140Z,-31
2023-04-06T04:01:08.410Z,-31
2023-04-06T04:02:14.686Z,-31
2023-04-06T04:03:20.961Z,-31
2023-04-06T04:04:27.252Z,-32
2023-04-06T04:05:33.511Z,-31
2023-04-06T04:06:39.773Z,-31
2023-04-06T04:07:46.074Z,-31
2023-04-06T04:08:52.318Z,-31
2023-04-06T04:09:58.603Z,-30
2023-04-06T04:11:04.897Z,-31
2023-04-06T04:12:11.142Z,-32
2023-04-06T04:13:17.415Z,-32
2023-04-06T04:14:23.693Z,-31
2023-04-06T04:15:28.978Z,-30
2023-04-06T04:16:35.321Z,-31
2023-04-06T04:17:41.521Z,-32
2023-04-06T04:18:47.797Z,-31
2023-04-06T04:19:54.081Z,-31
2023-04-06T04:21:00.340Z,-31
2023-04-06T04:22:06.617Z,-32
2023-04-06T04:23:12.897Z,-31
2023-04-06T04:24:19.163Z,-31
2023-04-06T04:25:24.465Z,-32
2023-04-06T04:26:30.733Z,-31
2023-04-06T04:27:36.035Z,-30
2023-04-06T04:28:41.330Z,-32
2023-04-06T04:29:47.648Z,-31
2023-04-06T04:30:53.876Z,-31
2023-04-06T04:32:00.142Z,-31
2023-04-06T04:33:06.434Z,-31
2023-04-06T04:34:12.695Z,-30
2023-04-06T04:35:18.984Z,-32
2023-04-06T04:36:25.241Z,-33
2023-04-06T04:37:31.516Z,-31
2023-04-06T04:38:37.786Z,-33
2023-04-06T04:39:44.059Z,-32
2023-04-06T04:40:50.328Z,-32
2023-04-06T04:41:56.625Z,-31
2023-04-06T04:43:01.904Z,-31
2023-04-06T04:44:08.189Z,-31
2023-04-06T04:45:14.440Z,-31
2023-04-06T04:46:20.721Z,-32
2023-04-06T04:47:27.003Z,-31
2023-04-06T04:48:33.266Z,-31
2023-04-06T04:49:39.534Z,-31
2023-04-06T04:50:44.842Z,-30
2023-04-06T04:51:50.125Z,-32
2023-04-06T04:52:55.425Z,-31
2023-04-06T04:54:00.722Z,-31
2023-04-06T04:55:06.980Z,-31
2023-04-06T04:56:13.257Z,-31
2023-04-06T04:57:19.526Z,-32
2023-04-06T04:58:25.789Z,-31
2023-04-06T04:59:32.089Z,-33
2023-04-06T05:00:38.372Z,-33
2023-04-06T05:01:44.632Z,-31
2023-04-06T05:02:50.891Z,-31
2023-04-06T05:03:57.171Z,-31
2023-04-06T05:05:03.448Z,-32
2023-04-06T05:06:09.710Z,-32
2023-04-06T05:07:15.997Z,-33
2023-04-06T05:08:21.283Z,-34
2023-04-06T05:09:27.558Z,-32
2023-04-06T05:10:33.823Z,-32
2023-04-06T05:11:40.101Z,-31
2023-04-06T05:12:46.365Z,-32
2023-04-06T05:13:52.644Z,-31
2023-04-06T05:14:58.914Z,-33
2023-04-06T05:16:04.215Z,-31
2023-04-06T05:17:09.529Z,-31
2023-04-06T05:18:15.786Z,-32
2023-04-06T05:19:21.074Z,-31
2023-04-06T05:20:26.373Z,-31
2023-04-06T05:21:32.639Z,-31
2023-04-06T05:22:38.908Z,-31
2023-04-06T05:23:45.181Z,-30
2023-04-06T05:24:51.454Z,-30
2023-04-06T05:25:57.734Z,-31
2023-04-06T05:27:04.006Z,-31
2023-04-06T05:28:10.280Z,-31
2023-04-06T05:29:16.565Z,-31
2023-04-06T05:30:22.824Z,-31
2023-04-06T05:31:29.091Z,-31
2023-04-06T05:32:35.369Z,-30
2023-04-06T05:33:41.704Z,-31
2023-04-06T05:34:46.931Z,-31
2023-04-06T05:35:53.198Z,-31
2023-04-06T05:36:59.473Z,-30
2023-04-06T05:38:05.751Z,-31
2023-04-06T05:39:12.019Z,-31
2023-04-06T05:40:18.297Z,-31
2023-04-06T05:41:24.585Z,-30
2023-04-06T05:42:29.858Z,-31
2023-04-06T05:43:36.133Z,-31
2023-04-06T05:44:41.421Z,-31
2023-04-06T05:45:47.689Z,-30
2023-04-06T05:46:53.975Z,-31
2023-04-06T05:47:59.266Z,-31
2023-04-06T05:49:04.608Z,-31
2023-04-06T05:50:10.872Z,-32
2023-04-06T05:51:17.144Z,-30
2023-04-06T05:52:23.445Z,-30
2023-04-06T05:53:29.731Z,-30
2023-04-06T05:54:35.987Z,-30
2023-04-06T05:55:42.184Z,-30
2023-04-06T05:56:48.495Z,-31
2023-04-06T05:57:54.759Z,-29
2023-04-06T05:59:00.993Z,-29
2023-04-06T06:00:07.274Z,-29
2023-04-06T06:01:13.607Z,-29
2023-04-06T06:02:19.855Z,-30
2023-04-06T06:03:25.139Z,-28
2023-04-06T06:04:31.384Z,-28
2023-04-06T06:05:37.654Z,-30
2023-04-06T06:06:43.929Z,-30
2023-04-06T06:07:50.255Z,-30
2023-04-06T06:08:56.526Z,-29
2023-04-06T06:10:02.770Z,-29
2023-04-06T06:11:08.049Z,-31
2023-04-06T06:12:13.336Z,-28
2023-04-06T06:13:18.697Z,-29
2023-04-06T06:14:23.940Z,-28
2023-04-06T06:15:30.196Z,-28
2023-04-06T06:16:36.463Z,-28
2023-04-06T06:17:42.776Z,-28
2023-04-06T06:18:49.018Z,-28
2023-04-06T06:19:55.295Z,-29
2023-04-06T06:21:01.674Z,-28
2023-04-06T06:22:07.823Z,-28
2023-04-06T06:23:14.107Z,-28
2023-04-06T06:24:20.376Z,-28
2023-04-06T06:25:26.664Z,-28
2023-04-06T06:26:32.916Z,-28
2023-04-06T06:27:39.200Z,-28
2023-04-06T06:28:45.455Z,-28
2023-04-06T06:29:50.758Z,-28
2023-04-06T06:30:57.027Z,-27
2023-04-06T06:32:03.296Z,-28
2023-04-06T06:33:09.590Z,-28
2023-04-06T06:34:15.884Z,-28
2023-04-06T06:35:22.113Z,-28
2023-04-06T06:36:28.398Z,-28
2023-04-06T06:37:34.692Z,-29
2023-04-06T06:38:40.944Z,-28
2023-04-06T06:39:47.205Z,-28
2023-04-06T06:40:53.489Z,-28
2023-04-06T06:41:59.763Z,-27
2023-04-06T06:43:06.029Z,-26
2023-04-06T06:44:11.325Z,-28
2023-04-06T06:45:17.594Z,-27
2023-04-06T06:46:23.861Z,-27
2023-04-06T06:47:30.151Z,-28
2023-04-06T06:48:36.398Z,-27
2023-04-06T06:49:42.676Z,-28
2023-04-06T06:50:48.951Z,-27
2023-04-06T06:51:55.227Z,-27
2023-04-06T06:53:01.502Z,-27
2023-04-06T06:54:07.842Z,-26
2023-04-06T06:55:14.065Z,-25
2023-04-06T06:56:20.318Z,-25
2023-04-06T06:57:25.606Z,-25
2023-04-06T06:58:30.928Z,-23
2023-04-06T06:59:36.205Z,-23
2023-04-06T07:00:41.497Z,-23
2023-04-06T07:01:47.836Z,-22
2023-04-06T07:02:54.036Z,-23
2023-04-06T07:04:00.373Z,-25
2023-04-06T07:05:07.349Z,-24
2023-04-06T07:06:12.855Z,-21
2023-04-06T07:07:19.126Z,-23
2023-04-06T07:08:25.393Z,-24
2023-04-06T07:09:31.665Z,-25
2023-04-06T07:10:37.936Z,-24
2023-04-06T07:11:44.207Z,-25
2023-04-06T07:12:50.481Z,-25
2023-04-06T07:13:56.769Z,-25
2023-04-06T07:15:02.049Z,-25
2023-04-06T07:16:08.401Z,-26
2023-04-06T07:17:14.616Z,-24
2023-04-06T07:18:20.873Z,-25
2023-04-06T07:19:27.134Z,-25
2023-04-06T07:20:33.405Z,-24
2023-04-06T07:21:39.671Z,-24
2023-04-06T07:22:44.978Z,-24
2023-04-06T07:23:50.273Z,-25
2023-04-06T07:24:55.629Z,-25
2023-04-06T07:26:00.859Z,-25
2023-04-06T07:27:07.136Z,-24
2023-04-06T07:28:13.402Z,-25
2023-04-06T07:29:19.693Z,-25
2023-04-06T07:30:25.952Z,-25
2023-04-06T07:31:32.222Z,-25
2023-04-06T07:32:38.486Z,-25
2023-04-06T07:33:44.761Z,-24
2023-04-06T07:34:51.081Z,-24
2023-04-06T07:35:57.301Z,-25
2023-04-06T07:37:03.580Z,-24
2023-04-06T07:38:09.858Z,-24
2023-04-06T07:39:16.292Z,-25
2023-04-06T07:40:21.438Z,-25
2023-04-06T07:41:27.683Z,-25
2023-04-06T07:42:33.952Z,-25
2023-04-06T07:43:40.384Z,-25
2023-04-06T07:44:46.598Z,-24
2023-04-06T07:45:52.772Z,-25
2023-04-06T07:46:59.055Z,-25
2023-04-06T07:48:04.344Z,-24
2023-04-06T07:49:09.633Z,-25
2023-04-06T07:50:15.918Z,-25
2023-04-06T07:51:21.269Z,-25
2023-04-06T07:52:26.492Z,-24
2023-04-06T07:53:32.765Z,-25
2023-04-06T07:54:39.036Z,-24
2023-04-06T07:55:45.352Z,-26
2023-04-06T07:56:51.591Z,-24
2023-04-06T07:57:57.917Z,-22
2023-04-06T07:59:04.132Z,-24
2023-04-06T08:00:10.452Z,-23
2023-04-06T08:01:16.796Z,-25
2023-04-06T08:02:23.057Z,-24
2023-04-06T08:03:29.211Z,-24
2023-04-06T08:04:35.502Z,-23
2023-04-06T08:05:41.820Z,-23
2023-04-06T08:06:47.053Z,-22
2023-04-06T08:07:53.317Z,-24
2023-04-06T08:08:59.612Z,-23
2023-04-06T08:10:05.868Z,-25
2023-04-06T08:11:12.135Z,-23
2023-04-06T08:12:18.412Z,-23
2023-04-06T08:13:24.680Z,-22
2023-04-06T08:14:29.978Z,-24
2023-04-06T08:15:36.376Z,-21
2023-04-06T08:16:41.661Z,-21
2023-04-06T08:17:46.959Z,-21
2023-04-06T08:18:53.230Z,-21
2023-04-06T08:19:59.496Z,-21
2023-04-06T08:21:05.774Z,-20
2023-04-06T08:22:12.052Z,-20
2023-04-06T08:23:18.336Z,-19
2023-04-06T08:24:24.591Z,-18
2023-04-06T08:25:30.903Z,-21
2023-04-06T08:26:37.134Z,-20
2023-04-06T08:27:43.418Z,-19
2023-04-06T08:28:49.710Z,-21
2023-04-06T08:29:55.948Z,-21
2023-04-06T08:31:02.227Z,-20
2023-04-06T08:32:07.510Z,-18
2023-04-06T08:33:13.778Z,-21
2023-04-06T08:34:20.061Z,-20
2023-04-06T08:35:26.331Z,-21
2023-04-06T08:36:32.610Z,-21
2023-04-06T08:37:38.868Z,-19
2023-04-06T08:38:45.154Z,-20
2023-04-06T08:39:50.447Z,-21
2023-04-06T08:40:55.735Z,-20
2023-04-06T08:42:01.033Z,-20
2023-04-06T08:43:06.317Z,-21
2023-04-06T08:44:12.593Z,-21
2023-04-06T08:45:18.870Z,-19
2023-04-06T08:46:25.132Z,-20
2023-04-06T08:47:31.401Z,-20
2023-04-06T08:48:37.690Z,-21
2023-04-06T08:49:43.950Z,-20
2023-04-06T08:50:50.225Z,-20
2023-04-06T08:51:56.490Z,-18
2023-04-06T08:53:02.777Z,-20
2023-04-06T08:54:09.070Z,-19
2023-04-06T08:55:15.317Z,-19
2023-04-06T08:56:21.592Z,-20
2023-04-06T08:57:26.873Z,-19
2023-04-06T08:58:33.153Z,-19
2023-04-06T08:59:39.415Z,-19
2023-04-06T09:00:45.705Z,-18
2023-04-06T09:01:51.957Z,-21
2023-04-06T09:02:58.237Z,-18
2023-04-06T09:04:04.508Z,-19
2023-04-06T09:05:09.828Z,-19
2023-04-06T09:06:15.100Z,-19
2023-04-06T09:07:20.387Z,-19
2023-04-06T09:08:25.692Z,-18
2023-04-06T09:09:31.955Z,-18
2023-04-06T09:10:38.233Z,-18
2023-04-06T09:11:44.495Z,-19
2023-04-06T09:12:50.778Z,-19
2023-04-06T09:13:57.060Z,-19
2023-04-06T09:15:03.310Z,-18
2023-04-06T09:16:09.588Z,-18
2023-04-06T09:17:15.862Z,-18
2023-04-06T09:18:22.134Z,-18
2023-04-06T09:19:28.406Z,-18
2023-04-06T09:20:34.676Z,-18
2023-04-06T09:21:40.951Z,-18
2023-04-06T09:22:46.253Z,-18
2023-04-06T09:23:52.505Z,-18
2023-04-06T09:24:58.779Z,-17
2023-04-06T09:26:05.056Z,-17
2023-04-06T09:27:11.320Z,-18
2023-04-06T09:28:17.596Z,-17
2023-04-06T09:29:23.868Z,-17
2023-04-06T09:30:29.173Z,-18
2023-04-06T09:31:35.441Z,-16
2023-04-06T09:32:40.745Z,-16
2023-04-06T09:33:46.037Z,-16
2023-04-06T09:34:52.296Z,-18
2023-04-06T09:35:58.569Z,-15
2023-04-06T09:37:04.850Z,-16
2023-04-06T09:38:11.121Z,-15
2023-04-06T09:39:17.423Z,-15
2023-04-06T09:40:23.669Z,-15
2023-04-06T09:41:29.937Z,-15
2023-04-06T09:42:36.227Z,-14
2023-04-06T09:43:42.480Z,-14
2023-04-06T09:44:48.762Z,-12
2023-04-06T09:45:55.086Z,-12
2023-04-06T09:47:01.294Z,-12
2023-04-06T09:48:06.616Z,-11
2023-04-06T09:49:12.882Z,-12
2023-04-06T09:50:19.134Z,-12
2023-04-06T09:51:25.409Z,-12
2023-04-06T09:52:31.678Z,-10
2023-04-06T09:53:38.007Z,-9
2023-04-06T09:54:44.220Z,-9
2023-04-06T09:55:49.525Z,-9
2023-04-06T09:56:54.788Z,-9
2023-04-06T09:58:00.101Z,-9
2023-04-06T09:59:05.380Z,-8
2023-04-06T10:00:11.661Z,-9
2023-04-06T10:01:17.948Z,-9
2023-04-06T10:02:24.232Z,-8
2023-04-06T10:03:30.464Z,-7
2023-04-06T10:04:36.745Z,-7
2023-04-06T10:05:43.012Z,-7
2023-04-06T10:06:49.287Z,-6
2023-04-06T10:07:55.601Z,-9
2023-04-06T10:09:01.852Z,-7
2023-04-06T10:10:08.098Z,-7
2023-04-06T10:11:14.379Z,-6
2023-04-06T10:12:20.645Z,-8
2023-04-06T10:13:25.930Z,-6
2023-04-06T10:14:32.197Z,-5
2023-04-06T10:15:38.470Z,-5
2023-04-06T10:16:44.740Z,-6
2023-04-06T10:17:51.009Z,-6
2023-04-06T10:18:57.286Z,-7
2023-04-06T10:20:03.570Z,-7
2023-04-06T10:21:08.860Z,-7
2023-04-06T10:22:14.145Z,-7
2023-04-06T10:23:20.426Z,-6
2023-04-06T10:24:26.698Z,-5
2023-04-06T10:25:32.961Z,-6
2023-04-06T10:26:39.226Z,-5
2023-04-06T10:27:45.502Z,-6
2023-04-06T10:28:51.802Z,-6
2023-04-06T10:29:58.047Z,-7
2023-04-06T10:31:04.323Z,-8
2023-04-06T10:32:10.624Z,-8
2023-04-06T10:33:16.869Z,-6
2023-04-06T10:34:23.150Z,-6
2023-04-06T10:35:29.434Z,-5
2023-04-06T10:36:34.698Z,-5
2023-04-06T10:37:40.999Z,-6
2023-04-06T10:38:47.340Z,-5
2023-04-06T10:39:53.527Z,-5
2023-04-06T10:40:59.801Z,-5
2023-04-06T10:42:06.065Z,-4
2023-04-06T10:43:12.336Z,-5
2023-04-06T10:44:18.749Z,-6
2023-04-06T10:45:23.903Z,-5
2023-04-06T10:46:29.191Z,-6
2023-04-06T10:47:34.492Z,-6
2023-04-06T10:48:39.793Z,-5
2023-04-06T10:49:46.067Z,-4
2023-04-06T10:50:51.382Z,-5
2023-04-06T10:51:56.637Z,-4
2023-04-06T10:53:02.934Z,-5
2023-04-06T10:54:09.198Z,-6
2023-04-06T10:55:15.461Z,-5
2023-04-06T10:56:21.730Z,-5
2023-04-06T10:57:28.009Z,-6
2023-04-06T10:58:34.279Z,-5
2023-04-06T10:59:40.584Z,-4
2023-04-06T11:00:46.807Z,-6
2023-04-06T11:01:53.089Z,-6
2023-04-06T11:02:59.352Z,-6
2023-04-06T11:04:05.629Z,-6
2023-04-06T11:05:10.937Z,-5
2023-04-06T11:06:17.193Z,-6
2023-04-06T11:07:23.473Z,-6
2023-04-06T11:08:29.741Z,-5
2023-04-06T11:09:36.011Z,-5
2023-04-06T11:10:42.302Z,-5
2023-04-06T11:11:48.542Z,-5
2023-04-06T11:12:54.811Z,-5
2023-04-06T11:14:01.088Z,-6
2023-04-06T11:15:06.558Z,-4
2023-04-06T11:16:11.669Z,-5
2023-04-06T11:17:18.137Z,-3
2023-04-06T11:18:24.430Z,-5
2023-04-06T11:19:30.659Z,-3
2023-04-06T11:20:36.991Z,-3
2023-04-06T11:21:42.236Z,-3
2023-04-06T11:22:48.434Z,-4
2023-04-06T11:23:53.775Z,-3
2023-04-06T11:24:59.892Z,-3
2023-04-06T11:26:06.368Z,-3
2023-04-06T11:27:12.604Z,-2
2023-04-06T11:28:18.785Z,-3
2023-04-06T11:29:25.194Z,-2
2023-04-06T11:30:31.515Z,-3
2023-04-06T11:31:37.640Z,-3
2023-04-06T11:32:43.960Z,-3
2023-04-06T11:33:50.217Z,-3
2023-04-06T11:34:56.537Z,-4
2023-04-06T11:36:02.608Z,-4
2023-04-06T11:37:09.049Z,-3
2023-04-06T11:38:14.357Z,-3
2023-04-06T11:39:20.654Z,-3
2023-04-06T11:40:26.886Z,-3
2023-04-06T11:41:33.158Z,-3
2023-04-06T11:42:39.418Z,-3
2023-04-06T11:43:45.635Z,-3
2023-04-06T11:44:51.002Z,-4
2023-04-06T11:45:56.117Z,-4
2023-04-06T11:47:01.612Z,-3
2023-04-06T11:48:06.779Z,-4
2023-04-06T11:49:12.971Z,-3
2023-04-06T11:50:19.321Z,-2
2023-04-06T11:51:25.697Z,-3
2023-04-06T11:52:31.881Z,-3
2023-04-06T11:53:38.240Z,0
2023-04-06T11:54:44.499Z,0
2023-04-06T11:55:50.799Z,-1
2023-04-06T11:56:57.113Z,-1
2023-04-06T11:58:03.321Z,0
2023-04-06T11:59:09.591Z,0
2023-04-06T12:00:15.851Z,-1
2023-04-06T12:01:22.193Z,0
2023-04-06T12:02:27.247Z,-1
2023-04-06T12:03:33.652Z,0
2023-04-06T12:04:39.942Z,-1
2023-04-06T12:05:46.144Z,-1
2023-04-06T12:06:52.499Z,0
2023-04-06T12:07:58.763Z,0
2023-04-06T12:09:05.111Z,0
2023-04-06T12:10:11.261Z,0
2023-04-06T12:11:17.605Z,-1
2023-04-06T12:12:23.691Z,0
2023-04-06T12:13:30.122Z,0
2023-04-06T12:14:36.310Z,0
2023-04-06T12:15:42.699Z,0
2023-04-06T12:16:48.011Z,0
2023-04-06T12:17:54.165Z,0
2023-04-06T12:19:00.529Z,1
2023-04-06T12:20:06.769Z,0
2023-04-06T12:21:13.047Z,1
2023-04-06T12:22:19.346Z,0
2023-04-06T12:23:25.605Z,2
2023-04-06T12:24:31.892Z,1
2023-04-06T12:25:37.963Z,2
2023-04-06T12:26:44.424Z,0
2023-04-06T12:28:56.922Z,2
2023-04-06T12:30:03.221Z,1
2023-04-06T12:31:08.441Z,0
2023-04-06T12:32:14.711Z,0
2023-04-06T12:33:21.050Z,2
2023-04-06T12:34:27.398Z,1
2023-04-06T12:35:33.600Z,1
2023-04-06T12:36:39.879Z,1
2023-04-06T12:37:46.187Z,0
2023-04-06T12:38:52.247Z,2
2023-04-06T12:39:58.683Z,2
2023-04-06T12:41:04.964Z,2
2023-04-06T12:42:11.052Z,1
2023-04-06T12:43:17.492Z,0
2023-04-06T12:44:23.834Z,0
2023-04-06T12:45:28.944Z,0
2023-04-06T12:46:35.351Z,2
2023-04-06T12:47:41.625Z,2
2023-04-06T12:48:47.919Z,1
2023-04-06T12:49:54.102Z,3
2023-04-06T12:51:00.419Z,3
2023-04-06T12:52:06.697Z,3
2023-04-06T12:53:12.965Z,4
2023-04-06T12:54:18.329Z,3
2023-04-06T12:55:23.589Z,4
2023-04-06T12:56:29.649Z,3
2023-04-06T12:57:36.105Z,3
2023-04-06T12:58:41.383Z,4
2023-04-06T12:59:46.511Z,4
2023-04-06T13:00:52.957Z,3
2023-04-06T13:01:59.249Z,3
2023-04-06T13:03:05.557Z,2
2023-04-06T13:04:11.792Z,2
2023-04-06T13:05:18.000Z,1
2023-04-06T13:06:24.263Z,1
2023-04-06T13:07:30.579Z,1
2023-04-06T13:08:36.691Z,1
2023-04-06T13:09:43.084Z,2
2023-04-06T13:10:49.359Z,3
2023-04-06T13:11:55.498Z,5
2023-04-06T13:13:01.999Z,4
2023-04-06T13:14:08.214Z,6
2023-04-06T13:15:13.527Z,5
2023-04-06T13:16:19.749Z,6
2023-04-06T13:17:26.042Z,6
2023-04-06T13:18:32.152Z,6
2023-04-06T13:19:38.559Z,6
2023-04-06T13:20:44.903Z,6
2023-04-06T13:21:49.989Z,8
2023-04-06T13:22:55.430Z,8
2023-04-06T13:24:00.782Z,8
2023-04-06T13:25:05.856Z,7
2023-04-06T13:26:12.329Z,8
2023-04-06T13:27:18.561Z,7
2023-04-06T13:28:24.869Z,8
2023-04-06T13:29:31.114Z,9
2023-04-06T13:30:37.379Z,11
2023-04-06T13:31:43.627Z,8
2023-04-06T13:32:49.928Z,9
2023-04-06T13:33:56.166Z,10
2023-04-06T13:35:02.484Z,8
2023-04-06T13:36:08.718Z,7
2023-04-06T13:37:15.017Z,9
2023-04-06T13:38:21.274Z,7
2023-04-06T13:39:27.395Z,7
2023-04-06T13:40:33.789Z,8
2023-04-06T13:41:39.120Z,9
2023-04-06T13:42:45.406Z,8
2023-04-06T13:43:51.671Z,10
2023-04-06T13:44:57.988Z,9
2023-04-06T13:46:04.244Z,8
2023-04-06T13:47:09.530Z,8
2023-04-06T13:48:15.763Z,9
2023-04-06T13:49:21.115Z,7
2023-04-06T13:50:26.343Z,7
2023-04-06T13:51:32.489Z,6
2023-04-06T13:52:38.941Z,8
2023-04-06T13:53:45.013Z,6
2023-04-06T13:54:51.431Z,8
2023-04-06T13:55:57.749Z,8
2023-04-06T13:57:04.060Z,9
2023-04-06T13:58:10.216Z,9
2023-04-06T13:59:16.425Z,9
2023-04-06T14:00:22.750Z,9
2023-04-06T14:01:28.998Z,7
2023-04-06T14:02:35.423Z,6
2023-04-06T14:03:41.656Z,6
2023-04-06T14:04:46.834Z,5
2023-04-06T14:05:53.210Z,5
2023-04-06T14:06:59.281Z,3
2023-04-06T14:08:05.685Z,3
2023-04-06T14:09:12.019Z,3
2023-04-06T14:10:18.092Z,3
2023-04-06T14:11:24.514Z,2
2023-04-06T14:12:29.855Z,3
2023-04-06T14:13:34.943Z,3
2023-04-06T14:14:40.445Z,2
2023-04-06T14:15:45.732Z,3
2023-04-06T14:16:51.809Z,2
2023-04-06T14:17:58.077Z,2
2023-04-06T14:19:04.520Z,1
2023-04-06T14:20:10.687Z,3
2023-04-06T14:21:17.108Z,2
2023-04-06T14:22:23.339Z,2
2023-04-06T14:23:29.634Z,0
2023-04-06T14:24:35.704Z,0
2023-04-06T14:25:41.983Z,2
2023-04-06T14:26:48.434Z,1
2023-04-06T14:27:54.632Z,0
2023-04-06T14:29:01.022Z,1
2023-04-06T14:30:06.084Z,1
2023-04-06T14:31:12.364Z,1
2023-04-06T14:32:18.818Z,2
2023-04-06T14:33:25.090Z,1
2023-04-06T14:34:31.386Z,0
2023-04-06T14:35:37.617Z,2
2023-04-06T14:36:43.913Z,1
2023-04-06T14:37:49.181Z,2
2023-04-06T14:38:54.494Z,0
2023-04-06T14:39:59.820Z,1
2023-04-06T14:41:06.064Z,1
2023-04-06T14:42:11.315Z,0
2023-04-06T14:43:17.439Z,1
2023-04-06T14:44:23.876Z,1
2023-04-06T14:45:30.139Z,2
2023-04-06T14:46:35.275Z,1
2023-04-06T14:47:41.710Z,0
2023-04-06T14:48:47.991Z,0
2023-04-06T14:49:54.283Z,1
2023-04-06T14:51:00.456Z,2
2023-04-06T14:52:06.629Z,0
2023-04-06T14:53:13.014Z,2
2023-04-06T14:54:19.341Z,2
2023-04-06T14:55:25.619Z,1
2023-04-06T14:56:31.710Z,1
2023-04-06T14:57:38.102Z,1
2023-04-06T14:58:44.438Z,0
2023-04-06T14:59:50.686Z,0
2023-04-06T15:00:55.992Z,0
2023-04-06T15:02:02.092Z,0
2023-04-06T15:03:07.551Z,0
2023-04-06T15:04:12.819Z,0
2023-04-06T15:05:18.195Z,0
2023-04-06T15:06:23.445Z,0
2023-04-06T15:07:29.720Z,0
2023-04-06T15:08:35.947Z,0
2023-04-06T15:09:42.220Z,0
2023-04-06T15:10:48.511Z,0
2023-04-06T15:11:54.623Z,0
2023-04-06T15:13:00.887Z,0
2023-04-06T15:14:07.255Z,2
2023-04-06T15:15:13.604Z,-1
2023-04-06T15:16:19.913Z,0
2023-04-06T15:17:25.976Z,0
2023-04-06T15:18:32.399Z,0
2023-04-06T15:19:38.714Z,-1
2023-04-06T15:20:43.806Z,-2
2023-04-06T15:21:50.239Z,0
2023-04-06T15:22:56.353Z,-1
2023-04-06T15:24:02.685Z,-1
2023-04-06T15:25:08.897Z,0
2023-04-06T15:26:15.220Z,0
2023-04-06T15:27:21.643Z,0
2023-04-06T15:28:26.735Z,-1